sensor_id;sensor_type;location;lat;lon;timestamp;pressure;altitude;pressure_sealevel;temperature;humidity
22000;BME280;11164;48.818;2.322;2023-11-21T00:01:15;100312.16;;;13.28;47.80
22000;BME280;11164;48.818;2.322;2023-11-21T00:03:40;100324.28;;;13.26;48.01
22000;BME280;11164;48.818;2.322;2023-11-21T00:06:06;100313.13;;;13.16;48.07
22000;BME280;11164;48.818;2.322;2023-11-21T00:08:34;100318.94;;;12.94;48.59
22000;BME280;11164;48.818;2.322;2023-11-21T00:10:59;100316.84;;;12.96;48.68
22000;BME280;11164;48.818;2.322;2023-11-21T00:13:25;100310.75;;;13.01;48.47
22000;BME280;11164;48.818;2.322;2023-11-21T00:15:51;100318.66;;;13.02;48.80
22000;BME280;11164;48.818;2.322;2023-11-21T00:18:16;100320.50;;;13.08;48.30
22000;BME280;11164;48.818;2.322;2023-11-21T00:20:41;100317.94;;;12.88;48.96
22000;BME280;11164;48.818;2.322;2023-11-21T00:23:07;100311.13;;;13.04;48.47
22000;BME280;11164;48.818;2.322;2023-11-21T00:25:32;100319.97;;;13.18;48.08
22000;BME280;11164;48.818;2.322;2023-11-21T00:27:57;100326.94;;;13.33;47.80
22000;BME280;11164;48.818;2.322;2023-11-21T00:30:22;100329.31;;;13.22;48.17
22000;BME280;11164;48.818;2.322;2023-11-21T00:32:48;100329.38;;;13.34;47.84
22000;BME280;11164;48.818;2.322;2023-11-21T00:35:13;100325.16;;;13.20;48.08
22000;BME280;11164;48.818;2.322;2023-11-21T00:37:39;100325.44;;;13.11;48.38
22000;BME280;11164;48.818;2.322;2023-11-21T00:40:05;100328.19;;;13.30;47.84
22000;BME280;11164;48.818;2.322;2023-11-21T00:42:31;100315.78;;;13.22;47.73
22000;BME280;11164;48.818;2.322;2023-11-21T00:44:59;100310.75;;;13.26;47.64
22000;BME280;11164;48.818;2.322;2023-11-21T00:47:24;100323.06;;;13.22;48.18
22000;BME280;11164;48.818;2.322;2023-11-21T00:49:49;100322.03;;;13.23;47.82
22000;BME280;11164;48.818;2.322;2023-11-21T00:52:14;100331.19;;;13.22;47.95
22000;BME280;11164;48.818;2.322;2023-11-21T00:54:40;100318.00;;;13.07;47.93
22000;BME280;11164;48.818;2.322;2023-11-21T00:57:06;100320.28;;;13.10;47.87
22000;BME280;11164;48.818;2.322;2023-11-21T00:59:31;100308.81;;;13.08;47.68
22000;BME280;11164;48.818;2.322;2023-11-21T01:01:56;100317.16;;;13.06;47.84
22000;BME280;11164;48.818;2.322;2023-11-21T01:07:00;100321.91;;;13.11;47.47
22000;BME280;11164;48.818;2.322;2023-11-21T01:09:25;100321.19;;;12.97;47.86
22000;BME280;11164;48.818;2.322;2023-11-21T01:11:50;100320.13;;;13.05;47.36
22000;BME280;11164;48.818;2.322;2023-11-21T01:14:17;100315.03;;;12.83;47.82
22000;BME280;11164;48.818;2.322;2023-11-21T01:16:43;100323.88;;;12.72;48.02
22000;BME280;11164;48.818;2.322;2023-11-21T01:19:08;100326.28;;;12.80;47.75
22000;BME280;11164;48.818;2.322;2023-11-21T01:21:34;100335.00;;;12.89;47.63
22000;BME280;11164;48.818;2.322;2023-11-21T01:23:59;100338.25;;;12.98;47.40
22000;BME280;11164;48.818;2.322;2023-11-21T01:26:24;100344.13;;;12.94;47.37
22000;BME280;11164;48.818;2.322;2023-11-21T01:28:50;100336.28;;;12.86;47.43
22000;BME280;11164;48.818;2.322;2023-11-21T01:31:15;100340.38;;;12.96;47.13
22000;BME280;11164;48.818;2.322;2023-11-21T01:33:41;100335.13;;;12.69;47.92
22000;BME280;11164;48.818;2.322;2023-11-21T01:36:06;100317.56;;;12.53;47.89
22000;BME280;11164;48.818;2.322;2023-11-21T01:38:32;100334.22;;;12.50;48.29
22000;BME280;11164;48.818;2.322;2023-11-21T01:40:57;100340.13;;;12.33;48.54
22000;BME280;11164;48.818;2.322;2023-11-21T01:43:25;100340.28;;;12.45;48.26
22000;BME280;11164;48.818;2.322;2023-11-21T01:45:51;100345.66;;;12.52;48.23
22000;BME280;11164;48.818;2.322;2023-11-21T01:48:17;100345.91;;;12.75;47.41
22000;BME280;11164;48.818;2.322;2023-11-21T01:50:43;100356.03;;;12.87;47.26
22000;BME280;11164;48.818;2.322;2023-11-21T01:53:08;100353.97;;;12.82;47.40
22000;BME280;11164;48.818;2.322;2023-11-21T01:55:34;100358.88;;;12.67;47.80
22000;BME280;11164;48.818;2.322;2023-11-21T01:57:59;100365.75;;;12.63;48.13
22000;BME280;11164;48.818;2.322;2023-11-21T02:00:25;100365.47;;;12.78;47.60
22000;BME280;11164;48.818;2.322;2023-11-21T02:02:53;100357.09;;;12.86;47.62
22000;BME280;11164;48.818;2.322;2023-11-21T02:05:19;100368.34;;;12.83;47.71
22000;BME280;11164;48.818;2.322;2023-11-21T02:07:45;100359.22;;;12.77;48.01
22000;BME280;11164;48.818;2.322;2023-11-21T02:10:14;100363.91;;;12.95;47.70
22000;BME280;11164;48.818;2.322;2023-11-21T02:12:43;100361.25;;;12.82;47.84
22000;BME280;11164;48.818;2.322;2023-11-21T02:15:10;100374.56;;;12.90;47.93
22000;BME280;11164;48.818;2.322;2023-11-21T02:17:43;100364.94;;;12.94;47.91
22000;BME280;11164;48.818;2.322;2023-11-21T02:20:10;100361.19;;;12.95;47.79
22000;BME280;11164;48.818;2.322;2023-11-21T02:22:41;100366.22;;;12.91;48.03
22000;BME280;11164;48.818;2.322;2023-11-21T02:25:07;100360.25;;;12.76;48.36
22000;BME280;11164;48.818;2.322;2023-11-21T02:27:33;100357.94;;;12.80;48.36
22000;BME280;11164;48.818;2.322;2023-11-21T02:29:58;100359.19;;;12.84;48.16
22000;BME280;11164;48.818;2.322;2023-11-21T02:32:25;100363.34;;;12.80;48.17
22000;BME280;11164;48.818;2.322;2023-11-21T02:34:51;100363.00;;;12.69;48.42
22000;BME280;11164;48.818;2.322;2023-11-21T02:37:16;100368.84;;;12.66;48.63
22000;BME280;11164;48.818;2.322;2023-11-21T02:39:42;100378.06;;;12.59;48.73
22000;BME280;11164;48.818;2.322;2023-11-21T02:42:07;100377.78;;;12.73;48.44
22000;BME280;11164;48.818;2.322;2023-11-21T02:44:33;100375.22;;;12.79;48.41
22000;BME280;11164;48.818;2.322;2023-11-21T02:46:58;100362.34;;;12.74;48.25
22000;BME280;11164;48.818;2.322;2023-11-21T02:49:25;100381.16;;;12.94;47.86
22000;BME280;11164;48.818;2.322;2023-11-21T02:51:53;100374.38;;;12.85;48.30
22000;BME280;11164;48.818;2.322;2023-11-21T02:54:20;100374.28;;;12.98;48.03
22000;BME280;11164;48.818;2.322;2023-11-21T02:56:47;100372.34;;;13.05;47.95
22000;BME280;11164;48.818;2.322;2023-11-21T02:59:12;100379.53;;;12.93;48.06
22000;BME280;11164;48.818;2.322;2023-11-21T03:01:37;100380.75;;;12.97;48.08
22000;BME280;11164;48.818;2.322;2023-11-21T03:04:03;100371.84;;;12.90;48.15
22000;BME280;11164;48.818;2.322;2023-11-21T03:06:28;100378.53;;;12.87;48.58
22000;BME280;11164;48.818;2.322;2023-11-21T03:08:54;100369.53;;;12.93;48.37
22000;BME280;11164;48.818;2.322;2023-11-21T03:11:19;100373.19;;;13.06;47.92
22000;BME280;11164;48.818;2.322;2023-11-21T03:13:46;100375.44;;;13.09;47.80
22000;BME280;11164;48.818;2.322;2023-11-21T03:16:12;100366.38;;;13.22;47.54
22000;BME280;11164;48.818;2.322;2023-11-21T03:18:38;100368.81;;;13.30;47.35
22000;BME280;11164;48.818;2.322;2023-11-21T03:21:05;100367.72;;;13.38;47.42
22000;BME280;11164;48.818;2.322;2023-11-21T03:23:31;100377.09;;;13.35;47.33
22000;BME280;11164;48.818;2.322;2023-11-21T03:25:57;100375.56;;;13.21;48.01
22000;BME280;11164;48.818;2.322;2023-11-21T03:28:22;100366.16;;;12.98;48.09
22000;BME280;11164;48.818;2.322;2023-11-21T03:30:48;100384.84;;;13.31;47.30
22000;BME280;11164;48.818;2.322;2023-11-21T03:33:14;100395.97;;;13.17;47.98
22000;BME280;11164;48.818;2.322;2023-11-21T03:35:39;100389.69;;;12.98;48.32
22000;BME280;11164;48.818;2.322;2023-11-21T03:38:07;100381.47;;;12.86;48.63
22000;BME280;11164;48.818;2.322;2023-11-21T03:40:32;100391.91;;;12.75;48.89
22000;BME280;11164;48.818;2.322;2023-11-21T03:42:58;100385.38;;;12.83;48.66
22000;BME280;11164;48.818;2.322;2023-11-21T03:45:23;100388.59;;;12.73;48.76
22000;BME280;11164;48.818;2.322;2023-11-21T03:47:49;100393.88;;;12.62;49.18
22000;BME280;11164;48.818;2.322;2023-11-21T03:50:15;100391.88;;;12.82;48.84
22000;BME280;11164;48.818;2.322;2023-11-21T03:52:40;100397.56;;;12.99;48.32
22000;BME280;11164;48.818;2.322;2023-11-21T03:55:05;100390.56;;;12.91;48.29
22000;BME280;11164;48.818;2.322;2023-11-21T03:57:31;100395.38;;;12.89;48.54
22000;BME280;11164;48.818;2.322;2023-11-21T03:59:57;100398.25;;;12.94;48.25
22000;BME280;11164;48.818;2.322;2023-11-21T04:02:23;100395.09;;;12.98;48.16
22000;BME280;11164;48.818;2.322;2023-11-21T04:04:51;100396.72;;;13.05;47.85
22000;BME280;11164;48.818;2.322;2023-11-21T04:07:16;100400.97;;;12.94;48.44
22000;BME280;11164;48.818;2.322;2023-11-21T04:09:42;100397.06;;;12.84;48.33
22000;BME280;11164;48.818;2.322;2023-11-21T04:12:08;100403.72;;;12.81;48.68
22000;BME280;11164;48.818;2.322;2023-11-21T04:14:36;100408.44;;;12.92;48.37
22000;BME280;11164;48.818;2.322;2023-11-21T04:17:01;100410.25;;;13.05;48.08
22000;BME280;11164;48.818;2.322;2023-11-21T04:19:29;100420.13;;;12.93;48.16
22000;BME280;11164;48.818;2.322;2023-11-21T04:21:54;100424.97;;;12.84;48.35
22000;BME280;11164;48.818;2.322;2023-11-21T04:24:19;100426.63;;;12.79;48.43
22000;BME280;11164;48.818;2.322;2023-11-21T04:26:45;100425.16;;;12.89;48.19
22000;BME280;11164;48.818;2.322;2023-11-21T04:29:10;100433.63;;;13.00;48.19
22000;BME280;11164;48.818;2.322;2023-11-21T04:31:36;100431.25;;;13.10;47.75
22000;BME280;11164;48.818;2.322;2023-11-21T04:34:02;100443.81;;;12.98;48.31
22000;BME280;11164;48.818;2.322;2023-11-21T04:36:29;100442.94;;;13.04;48.06
22000;BME280;11164;48.818;2.322;2023-11-21T04:38:56;100442.84;;;12.79;48.48
22000;BME280;11164;48.818;2.322;2023-11-21T04:41:21;100439.13;;;12.73;48.77
22000;BME280;11164;48.818;2.322;2023-11-21T04:43:46;100438.09;;;12.74;48.87
22000;BME280;11164;48.818;2.322;2023-11-21T04:46:12;100444.94;;;12.76;48.70
22000;BME280;11164;48.818;2.322;2023-11-21T04:48:37;100425.47;;;12.61;48.88
22000;BME280;11164;48.818;2.322;2023-11-21T04:51:04;100436.00;;;12.76;48.54
22000;BME280;11164;48.818;2.322;2023-11-21T04:53:30;100435.78;;;12.78;48.45
22000;BME280;11164;48.818;2.322;2023-11-21T04:55:56;100432.72;;;12.67;48.68
22000;BME280;11164;48.818;2.322;2023-11-21T04:58:21;100441.25;;;12.71;48.67
22000;BME280;11164;48.818;2.322;2023-11-21T05:00:46;100434.94;;;12.84;48.31
22000;BME280;11164;48.818;2.322;2023-11-21T05:03:12;100449.19;;;13.04;48.08
22000;BME280;11164;48.818;2.322;2023-11-21T05:05:37;100446.44;;;13.11;47.58
22000;BME280;11164;48.818;2.322;2023-11-21T05:08:02;100452.72;;;13.05;48.15
22000;BME280;11164;48.818;2.322;2023-11-21T05:10:28;100458.88;;;13.19;47.70
22000;BME280;11164;48.818;2.322;2023-11-21T05:12:54;100456.81;;;13.14;47.83
22000;BME280;11164;48.818;2.322;2023-11-21T05:15:20;100459.66;;;12.94;48.41
22000;BME280;11164;48.818;2.322;2023-11-21T05:17:46;100453.25;;;12.88;48.72
22000;BME280;11164;48.818;2.322;2023-11-21T05:20:18;100449.53;;;12.76;48.88
22000;BME280;11164;48.818;2.322;2023-11-21T05:22:47;100447.84;;;12.82;48.87
22000;BME280;11164;48.818;2.322;2023-11-21T05:25:16;100456.56;;;12.90;48.57
22000;BME280;11164;48.818;2.322;2023-11-21T05:27:46;100469.84;;;12.99;48.36
22000;BME280;11164;48.818;2.322;2023-11-21T05:30:13;100467.72;;;13.01;48.25
22000;BME280;11164;48.818;2.322;2023-11-21T05:32:39;100468.09;;;13.11;48.11
22000;BME280;11164;48.818;2.322;2023-11-21T05:35:05;100465.34;;;13.18;48.20
22000;BME280;11164;48.818;2.322;2023-11-21T05:37:37;100473.84;;;13.21;48.08
22000;BME280;11164;48.818;2.322;2023-11-21T05:40:04;100470.09;;;13.22;47.98
22000;BME280;11164;48.818;2.322;2023-11-21T05:42:32;100469.44;;;12.95;48.89
22000;BME280;11164;48.818;2.322;2023-11-21T05:44:57;100471.19;;;13.15;48.41
22000;BME280;11164;48.818;2.322;2023-11-21T05:47:24;100467.56;;;13.27;48.11
22000;BME280;11164;48.818;2.322;2023-11-21T05:49:51;100481.50;;;13.31;48.13
22000;BME280;11164;48.818;2.322;2023-11-21T05:52:17;100465.63;;;13.03;48.65
22000;BME280;11164;48.818;2.322;2023-11-21T05:54:43;100481.53;;;13.24;48.38
22000;BME280;11164;48.818;2.322;2023-11-21T05:57:08;100485.06;;;13.25;48.42
22000;BME280;11164;48.818;2.322;2023-11-21T05:59:34;100492.97;;;13.26;48.25
22000;BME280;11164;48.818;2.322;2023-11-21T06:01:59;100490.13;;;13.15;48.63
22000;BME280;11164;48.818;2.322;2023-11-21T06:04:24;100487.78;;;13.25;48.62
22000;BME280;11164;48.818;2.322;2023-11-21T06:06:51;100486.75;;;13.26;48.57
22000;BME280;11164;48.818;2.322;2023-11-21T06:09:18;100493.84;;;13.20;48.72
22000;BME280;11164;48.818;2.322;2023-11-21T06:11:43;100488.50;;;13.39;48.35
22000;BME280;11164;48.818;2.322;2023-11-21T06:14:08;100487.31;;;13.35;48.35
22000;BME280;11164;48.818;2.322;2023-11-21T06:16:34;100491.84;;;13.09;48.77
22000;BME280;11164;48.818;2.322;2023-11-21T06:19:00;100485.91;;;12.80;49.54
22000;BME280;11164;48.818;2.322;2023-11-21T06:21:26;100494.69;;;12.82;49.73
22000;BME280;11164;48.818;2.322;2023-11-21T06:23:51;100505.81;;;13.06;49.17
22000;BME280;11164;48.818;2.322;2023-11-21T06:26:18;100509.78;;;13.03;49.19
22000;BME280;11164;48.818;2.322;2023-11-21T06:28:43;100509.69;;;13.17;48.81
22000;BME280;11164;48.818;2.322;2023-11-21T06:31:09;100505.16;;;13.10;48.80
22000;BME280;11164;48.818;2.322;2023-11-21T06:33:36;100510.72;;;13.22;48.72
22000;BME280;11164;48.818;2.322;2023-11-21T06:36:01;100510.59;;;13.36;48.11
22000;BME280;11164;48.818;2.322;2023-11-21T06:38:28;100509.41;;;13.31;48.36
22000;BME280;11164;48.818;2.322;2023-11-21T06:40:56;100510.66;;;13.29;48.69
22000;BME280;11164;48.818;2.322;2023-11-21T06:43:21;100517.31;;;13.33;48.64
22000;BME280;11164;48.818;2.322;2023-11-21T06:45:47;100519.78;;;13.35;48.38
22000;BME280;11164;48.818;2.322;2023-11-21T06:48:12;100517.03;;;13.41;48.40
22000;BME280;11164;48.818;2.322;2023-11-21T06:50:38;100505.41;;;13.34;48.52
22000;BME280;11164;48.818;2.322;2023-11-21T06:53:03;100517.94;;;13.28;48.66
22000;BME280;11164;48.818;2.322;2023-11-21T06:55:32;100516.81;;;13.11;49.08
22000;BME280;11164;48.818;2.322;2023-11-21T06:57:57;100521.63;;;13.09;49.24
22000;BME280;11164;48.818;2.322;2023-11-21T07:00:23;100524.09;;;13.10;49.37
22000;BME280;11164;48.818;2.322;2023-11-21T07:02:48;100528.75;;;13.03;49.18
22000;BME280;11164;48.818;2.322;2023-11-21T07:05:14;100524.56;;;13.01;49.45
22000;BME280;11164;48.818;2.322;2023-11-21T07:07:40;100533.44;;;12.69;50.14
22000;BME280;11164;48.818;2.322;2023-11-21T07:10:06;100531.94;;;12.87;49.88
22000;BME280;11164;48.818;2.322;2023-11-21T07:12:31;100526.50;;;12.93;49.58
22000;BME280;11164;48.818;2.322;2023-11-21T07:14:57;100539.38;;;12.98;49.81
22000;BME280;11164;48.818;2.322;2023-11-21T07:17:23;100542.25;;;13.10;49.38
22000;BME280;11164;48.818;2.322;2023-11-21T07:19:49;100554.28;;;13.14;49.29
22000;BME280;11164;48.818;2.322;2023-11-21T07:22:15;100553.41;;;13.20;48.98
22000;BME280;11164;48.818;2.322;2023-11-21T07:24:48;100555.72;;;13.17;49.47
22000;BME280;11164;48.818;2.322;2023-11-21T07:27:14;100558.66;;;13.15;49.46
22000;BME280;11164;48.818;2.322;2023-11-21T07:29:39;100545.19;;;13.02;49.48
22000;BME280;11164;48.818;2.322;2023-11-21T07:32:05;100564.28;;;13.13;49.76
22000;BME280;11164;48.818;2.322;2023-11-21T07:34:31;100562.69;;;12.99;50.25
22000;BME280;11164;48.818;2.322;2023-11-21T07:36:56;100568.81;;;13.20;49.79
22000;BME280;11164;48.818;2.322;2023-11-21T07:39:22;100577.44;;;13.42;49.34
22000;BME280;11164;48.818;2.322;2023-11-21T07:41:47;100574.13;;;13.40;49.48
22000;BME280;11164;48.818;2.322;2023-11-21T07:44:14;100576.84;;;13.40;49.62
22000;BME280;11164;48.818;2.322;2023-11-21T07:46:40;100580.16;;;13.42;49.53
22000;BME280;11164;48.818;2.322;2023-11-21T07:49:07;100588.50;;;13.40;49.62
22000;BME280;11164;48.818;2.322;2023-11-21T07:51:32;100586.94;;;13.19;50.08
22000;BME280;11164;48.818;2.322;2023-11-21T07:53:58;100587.91;;;13.31;49.79
22000;BME280;11164;48.818;2.322;2023-11-21T07:56:23;100592.94;;;13.28;49.90
22000;BME280;11164;48.818;2.322;2023-11-21T07:58:48;100597.63;;;13.46;49.80
22000;BME280;11164;48.818;2.322;2023-11-21T08:01:15;100590.00;;;13.36;49.67
22000;BME280;11164;48.818;2.322;2023-11-21T08:03:40;100593.69;;;13.42;49.91
22000;BME280;11164;48.818;2.322;2023-11-21T08:06:06;100595.59;;;13.41;50.02
22000;BME280;11164;48.818;2.322;2023-11-21T08:08:32;100601.41;;;13.45;49.96
22000;BME280;11164;48.818;2.322;2023-11-21T08:10:57;100600.72;;;13.49;49.91
22000;BME280;11164;48.818;2.322;2023-11-21T08:13:26;100607.63;;;13.45;50.06
22000;BME280;11164;48.818;2.322;2023-11-21T08:15:55;100617.16;;;13.55;50.31
22000;BME280;11164;48.818;2.322;2023-11-21T08:18:21;100614.25;;;13.49;49.83
22000;BME280;11164;48.818;2.322;2023-11-21T08:20:48;100610.72;;;13.49;50.09
22000;BME280;11164;48.818;2.322;2023-11-21T08:23:16;100615.00;;;13.31;50.79
22000;BME280;11164;48.818;2.322;2023-11-21T08:25:45;100612.00;;;13.46;50.13
22000;BME280;11164;48.818;2.322;2023-11-21T08:28:10;100625.19;;;13.36;50.65
22000;BME280;11164;48.818;2.322;2023-11-21T08:30:36;100630.72;;;13.48;50.20
22000;BME280;11164;48.818;2.322;2023-11-21T08:33:02;100623.19;;;13.57;50.05
22000;BME280;11164;48.818;2.322;2023-11-21T08:35:29;100629.44;;;13.57;49.87
22000;BME280;11164;48.818;2.322;2023-11-21T08:37:54;100638.31;;;13.71;49.63
22000;BME280;11164;48.818;2.322;2023-11-21T08:40:20;100634.38;;;13.67;50.20
22000;BME280;11164;48.818;2.322;2023-11-21T08:42:46;100632.50;;;13.67;50.21
22000;BME280;11164;48.818;2.322;2023-11-21T08:45:12;100620.22;;;13.65;50.11
22000;BME280;11164;48.818;2.322;2023-11-21T08:47:38;100635.50;;;13.91;49.62
22000;BME280;11164;48.818;2.322;2023-11-21T08:50:06;100635.63;;;13.71;50.34
22000;BME280;11164;48.818;2.322;2023-11-21T08:52:35;100625.25;;;13.61;50.17
22000;BME280;11164;48.818;2.322;2023-11-21T08:55:02;100636.34;;;13.85;50.12
22000;BME280;11164;48.818;2.322;2023-11-21T08:57:35;100634.66;;;13.91;49.77
22000;BME280;11164;48.818;2.322;2023-11-21T09:00:02;100650.31;;;13.88;50.29
22000;BME280;11164;48.818;2.322;2023-11-21T09:02:27;100654.19;;;13.99;50.20
22000;BME280;11164;48.818;2.322;2023-11-21T09:04:53;100659.19;;;14.02;50.08
22000;BME280;11164;48.818;2.322;2023-11-21T09:07:22;100655.69;;;13.95;50.47
22000;BME280;11164;48.818;2.322;2023-11-21T09:09:47;100656.81;;;14.13;50.00
22000;BME280;11164;48.818;2.322;2023-11-21T09:12:14;100658.84;;;14.17;49.78
22000;BME280;11164;48.818;2.322;2023-11-21T09:14:39;100663.78;;;14.27;49.58
22000;BME280;11164;48.818;2.322;2023-11-21T09:17:05;100677.06;;;14.35;49.59
22000;BME280;11164;48.818;2.322;2023-11-21T09:19:36;100666.94;;;14.24;49.74
22000;BME280;11164;48.818;2.322;2023-11-21T09:22:03;100673.09;;;14.13;49.81
22000;BME280;11164;48.818;2.322;2023-11-21T09:24:30;100676.84;;;14.12;49.80
22000;BME280;11164;48.818;2.322;2023-11-21T09:26:55;100673.34;;;14.04;49.94
22000;BME280;11164;48.818;2.322;2023-11-21T09:29:21;100656.41;;;13.77;50.42
22000;BME280;11164;48.818;2.322;2023-11-21T09:31:47;100682.69;;;14.09;49.99
22000;BME280;11164;48.818;2.322;2023-11-21T09:34:13;100680.44;;;14.05;50.06
22000;BME280;11164;48.818;2.322;2023-11-21T09:36:40;100675.84;;;14.06;50.12
22000;BME280;11164;48.818;2.322;2023-11-21T09:39:06;100676.81;;;13.80;50.84
22000;BME280;11164;48.818;2.322;2023-11-21T09:41:42;100682.13;;;14.00;50.70
22000;BME280;11164;48.818;2.322;2023-11-21T09:44:10;100694.19;;;14.36;49.99
22000;BME280;11164;48.818;2.322;2023-11-21T09:46:40;100696.34;;;14.52;49.74
22000;BME280;11164;48.818;2.322;2023-11-21T09:49:08;100699.19;;;14.57;49.83
22000;BME280;11164;48.818;2.322;2023-11-21T09:51:39;100703.97;;;14.62;49.84
22000;BME280;11164;48.818;2.322;2023-11-21T09:54:09;100692.94;;;14.57;50.24
22000;BME280;11164;48.818;2.322;2023-11-21T09:56:35;100704.13;;;14.67;49.97
22000;BME280;11164;48.818;2.322;2023-11-21T09:59:01;100696.13;;;14.72;49.91
22000;BME280;11164;48.818;2.322;2023-11-21T10:01:33;100701.28;;;14.80;49.81
22000;BME280;11164;48.818;2.322;2023-11-21T10:04:00;100709.72;;;14.97;49.49
22000;BME280;11164;48.818;2.322;2023-11-21T10:06:26;100714.25;;;15.22;48.75
22000;BME280;11164;48.818;2.322;2023-11-21T10:08:53;100718.97;;;14.90;50.09
22000;BME280;11164;48.818;2.322;2023-11-21T10:11:20;100721.78;;;14.76;49.97
22000;BME280;11164;48.818;2.322;2023-11-21T10:13:48;100717.06;;;14.15;51.17
22000;BME280;11164;48.818;2.322;2023-11-21T10:16:19;100715.63;;;14.12;50.76
22000;BME280;11164;48.818;2.322;2023-11-21T10:18:47;100735.44;;;14.13;50.66
22000;BME280;11164;48.818;2.322;2023-11-21T10:21:13;100742.44;;;14.27;50.25
22000;BME280;11164;48.818;2.322;2023-11-21T10:23:39;100736.84;;;14.22;50.30
22000;BME280;11164;48.818;2.322;2023-11-21T10:26:06;100748.84;;;14.33;50.33
22000;BME280;11164;48.818;2.322;2023-11-21T10:28:35;100756.97;;;14.08;50.99
22000;BME280;11164;48.818;2.322;2023-11-21T10:31:02;100750.56;;;14.27;50.40
22000;BME280;11164;48.818;2.322;2023-11-21T10:33:29;100748.88;;;14.01;50.78
22000;BME280;11164;48.818;2.322;2023-11-21T10:35:54;100767.59;;;14.41;50.58
22000;BME280;11164;48.818;2.322;2023-11-21T10:38:21;100749.38;;;14.48;49.76
22000;BME280;11164;48.818;2.322;2023-11-21T10:40:48;100757.28;;;14.50;50.27
22000;BME280;11164;48.818;2.322;2023-11-21T10:43:14;100755.19;;;14.52;50.07
22000;BME280;11164;48.818;2.322;2023-11-21T10:45:40;100752.63;;;14.57;50.06
22000;BME280;11164;48.818;2.322;2023-11-21T10:48:08;100749.47;;;14.35;50.54
22000;BME280;11164;48.818;2.322;2023-11-21T10:50:37;100754.41;;;14.44;50.42
22000;BME280;11164;48.818;2.322;2023-11-21T10:53:04;100755.75;;;14.35;50.77
22000;BME280;11164;48.818;2.322;2023-11-21T10:55:31;100759.59;;;14.71;50.60
22000;BME280;11164;48.818;2.322;2023-11-21T10:58:00;100771.91;;;14.74;50.52
22000;BME280;11164;48.818;2.322;2023-11-21T11:00:27;100757.75;;;14.72;50.45
22000;BME280;11164;48.818;2.322;2023-11-21T11:02:53;100765.59;;;14.55;50.72
22000;BME280;11164;48.818;2.322;2023-11-21T11:05:23;100752.13;;;14.41;51.16
22000;BME280;11164;48.818;2.322;2023-11-21T11:07:58;100752.09;;;14.73;50.35
22000;BME280;11164;48.818;2.322;2023-11-21T11:10:26;100767.16;;;14.94;49.99
22000;BME280;11164;48.818;2.322;2023-11-21T11:12:53;100767.19;;;15.13;49.77
22000;BME280;11164;48.818;2.322;2023-11-21T11:15:19;100763.09;;;15.04;49.96
22000;BME280;11164;48.818;2.322;2023-11-21T11:17:46;100772.47;;;15.26;49.58
22000;BME280;11164;48.818;2.322;2023-11-21T11:20:13;100758.88;;;14.89;50.55
22000;BME280;11164;48.818;2.322;2023-11-21T11:28:11;100763.47;;;15.07;49.87
22000;BME280;11164;48.818;2.322;2023-11-21T11:31:00;100762.66;;;14.81;50.84
22000;BME280;11164;48.818;2.322;2023-11-21T11:36:25;100771.03;;;15.05;50.24
22000;BME280;11164;48.818;2.322;2023-11-21T11:38:50;100766.56;;;14.92;50.35
22000;BME280;11164;48.818;2.322;2023-11-21T11:41:25;100769.72;;;14.89;50.48
22000;BME280;11164;48.818;2.322;2023-11-21T11:43:54;100764.88;;;14.66;50.85
22000;BME280;11164;48.818;2.322;2023-11-21T11:46:19;100770.88;;;14.75;50.79
22000;BME280;11164;48.818;2.322;2023-11-21T11:48:48;100773.19;;;14.96;50.24
22000;BME280;11164;48.818;2.322;2023-11-21T11:51:14;100768.63;;;15.15;49.81
22000;BME280;11164;48.818;2.322;2023-11-21T11:53:45;100767.06;;;14.83;50.86
22000;BME280;11164;48.818;2.322;2023-11-21T11:56:33;100773.69;;;14.61;50.97
22000;BME280;11164;48.818;2.322;2023-11-21T11:59:04;100776.78;;;14.65;50.84
22000;BME280;11164;48.818;2.322;2023-11-21T12:01:32;100769.38;;;14.79;50.47
22000;BME280;11164;48.818;2.322;2023-11-21T12:06:52;100771.47;;;14.77;50.26
22000;BME280;11164;48.818;2.322;2023-11-21T12:09:19;100780.16;;;14.60;50.56
22000;BME280;11164;48.818;2.322;2023-11-21T12:11:46;100780.88;;;14.49;51.16
22000;BME280;11164;48.818;2.322;2023-11-21T12:14:13;100781.16;;;14.66;50.67
22000;BME280;11164;48.818;2.322;2023-11-21T12:16:41;100779.59;;;14.84;50.33
22000;BME280;11164;48.818;2.322;2023-11-21T12:19:08;100772.06;;;15.04;49.83
22000;BME280;11164;48.818;2.322;2023-11-21T12:21:33;100784.59;;;14.80;50.09
22000;BME280;11164;48.818;2.322;2023-11-21T12:23:59;100778.56;;;14.53;50.66
22000;BME280;11164;48.818;2.322;2023-11-21T12:26:25;100786.34;;;14.68;50.31
22000;BME280;11164;48.818;2.322;2023-11-21T12:28:54;100790.31;;;14.97;49.91
22000;BME280;11164;48.818;2.322;2023-11-21T12:31:25;100779.63;;;14.77;50.09
22000;BME280;11164;48.818;2.322;2023-11-21T12:33:50;100789.19;;;14.54;50.64
22000;BME280;11164;48.818;2.322;2023-11-21T12:36:16;100782.13;;;14.47;50.54
22000;BME280;11164;48.818;2.322;2023-11-21T12:38:42;100790.28;;;14.47;50.54
22000;BME280;11164;48.818;2.322;2023-11-21T12:41:08;100786.13;;;14.44;50.60
22000;BME280;11164;48.818;2.322;2023-11-21T12:43:35;100801.16;;;14.72;50.06
22000;BME280;11164;48.818;2.322;2023-11-21T12:46:11;100802.09;;;14.59;50.55
22000;BME280;11164;48.818;2.322;2023-11-21T12:48:43;100805.34;;;14.99;49.84
22000;BME280;11164;48.818;2.322;2023-11-21T12:51:09;100798.00;;;15.25;49.18
22000;BME280;11164;48.818;2.322;2023-11-21T12:53:35;100814.59;;;15.54;48.95
22000;BME280;11164;48.818;2.322;2023-11-21T12:56:07;100800.25;;;15.47;49.06
22000;BME280;11164;48.818;2.322;2023-11-21T12:58:34;100810.09;;;15.48;49.24
22000;BME280;11164;48.818;2.322;2023-11-21T13:01:00;100820.91;;;15.11;49.97